Albany, New York
Traffic Map
Current Weather Conditions
Albany, New York
Few Clouds
Few Clouds
26°
Feels Like: 27°
Wind Chill: 26° Ceiling: Unl
Heat Index: 27° Visibility: 10mi
Dew Point: 19° Wind: 3mph
Humidity: 64% Direction: 290° (WNW)
Pressure: 29.89in Gusts: 0mph
Raw Report DataKALB 022351Z 29003KT 10SM FEW240 26/19 A2989 RMK AO2 SLP122 FEW V SCT T02610189 10317 20261 55002
Traffic Incident Summary
Active as of:
Severity:
Category:
InformationThere was an issue retrieving the traffic information for this location. Please try a different location or try again shortly.
Advertisements
Track Severe Weather on mobile